createdAt,value
2022-09-14T00:04:38.983Z,1.17
2022-09-14T00:09:40.454Z,1.38
2022-09-14T00:14:42.082Z,0.90
2022-09-14T00:19:43.647Z,1.33
2022-09-14T00:24:45.118Z,1.05
2022-09-14T00:29:48.574Z,1.25
2022-09-14T00:34:50.134Z,1.25
2022-09-14T00:39:51.738Z,0.98
2022-09-14T00:44:54.852Z,1.20
2022-09-14T00:49:56.324Z,1.20
2022-09-14T00:54:59.120Z,1.00
2022-09-14T01:00:00.618Z,1.77
2022-09-14T01:05:02.379Z,1.27
2022-09-14T01:10:16.876Z,1.13
2022-09-14T01:15:44.521Z,1.35
2022-09-14T01:20:51.839Z,1.88
2022-09-14T01:26:27.848Z,1.33
2022-09-14T01:31:34.600Z,1.08
2022-09-14T01:36:36.898Z,1.27
2022-09-14T01:46:41.823Z,1.40
2022-09-14T01:51:50.263Z,1.10
2022-09-14T01:56:53.845Z,1.70
2022-09-14T02:02:03.019Z,1.42
2022-09-14T02:07:04.831Z,1.08
2022-09-14T02:12:06.378Z,1.05
2022-09-14T02:17:08.504Z,0.90
2022-09-14T02:22:10.005Z,1.15
2022-09-14T02:27:11.531Z,0.80
2022-09-14T02:32:27.282Z,1.27
2022-09-14T02:37:50.198Z,1.15
2022-09-14T02:42:58.722Z,0.98
2022-09-14T02:48:04.838Z,0.90
2022-09-14T02:53:49.565Z,1.15
2022-09-14T02:58:51.076Z,1.08
2022-09-14T03:03:52.548Z,1.02
2022-09-14T03:08:54.015Z,0.95
2022-09-14T03:13:55.492Z,1.08
2022-09-14T03:18:56.955Z,1.30
2022-09-14T03:23:58.521Z,1.10
2022-09-14T03:29:00.007Z,1.25
2022-09-14T03:34:02.048Z,0.90
2022-09-14T03:39:03.572Z,1.38
2022-09-14T03:44:05.053Z,1.85
2022-09-14T03:49:06.536Z,1.25
2022-09-14T03:54:08.273Z,1.05
2022-09-14T03:59:10.144Z,1.52
2022-09-14T04:04:11.684Z,0.93
2022-09-14T04:09:13.175Z,1.13
2022-09-14T04:14:14.642Z,1.20
2022-09-14T04:19:17.295Z,1.23
2022-09-14T04:24:19.091Z,1.60
2022-09-14T04:29:20.750Z,1.25
2022-09-14T04:34:22.633Z,1.05
2022-09-14T04:39:24.115Z,1.80
2022-09-14T04:44:25.626Z,1.48
2022-09-14T04:49:27.095Z,1.25
2022-09-14T04:54:28.620Z,0.98
2022-09-14T04:59:30.083Z,1.60
2022-09-14T05:04:31.575Z,1.65
2022-09-14T05:09:33.037Z,1.35
2022-09-14T05:14:34.531Z,1.00
2022-09-14T05:19:36.006Z,1.20
2022-09-14T05:24:37.510Z,1.23
2022-09-14T05:29:40.201Z,1.20
2022-09-14T05:34:41.666Z,1.20
2022-09-14T05:39:43.175Z,1.63
2022-09-14T05:44:44.669Z,1.60
2022-09-14T05:49:46.134Z,1.95
2022-09-14T05:54:47.604Z,1.77
2022-09-14T05:59:49.071Z,1.35
2022-09-14T06:04:50.562Z,1.50
2022-09-14T06:09:52.043Z,1.55
2022-09-14T06:14:53.521Z,1.20
2022-09-14T06:19:54.991Z,1.20
2022-09-14T06:24:56.472Z,1.45
2022-09-14T06:29:57.975Z,1.33
2022-09-14T06:34:59.784Z,1.38
2022-09-14T06:40:01.343Z,1.02
2022-09-14T06:45:02.864Z,1.40
2022-09-14T06:50:04.768Z,1.60
2022-09-14T06:55:06.487Z,1.33
2022-09-14T07:00:08.890Z,1.40
2022-09-14T07:05:10.426Z,1.50
2022-09-14T07:10:11.911Z,1.20
2022-09-14T07:15:13.423Z,1.50
2022-09-14T07:20:15.625Z,1.50
2022-09-14T07:25:17.109Z,1.42
2022-09-14T07:30:18.580Z,1.25
2022-09-14T07:35:20.087Z,1.27
2022-09-14T07:40:23.156Z,1.10
2022-09-14T07:45:24.942Z,1.50
2022-09-14T07:50:26.462Z,1.45
2022-09-14T07:55:27.936Z,1.50
2022-09-14T08:00:29.416Z,1.20
2022-09-14T08:05:30.886Z,1.30
2022-09-14T08:10:34.799Z,1.40
2022-09-14T08:15:36.852Z,1.52
2022-09-14T08:20:38.472Z,1.10
2022-09-14T08:25:39.950Z,1.02
2022-09-14T08:30:41.549Z,1.23
2022-09-14T08:35:57.490Z,1.42
2022-09-14T08:41:05.895Z,1.55
2022-09-14T08:46:10.168Z,1.20
2022-09-14T08:51:11.758Z,1.20
2022-09-14T08:56:16.970Z,1.58
2022-09-14T09:01:37.339Z,1.10
2022-09-14T09:07:17.752Z,1.38
2022-09-14T09:12:34.899Z,1.00
2022-09-14T09:17:43.247Z,0.95
2022-09-14T09:23:04.901Z,0.65
2022-09-14T09:28:10.182Z,0.77
2022-09-14T09:33:23.231Z,0.80
2022-09-14T09:38:28.583Z,0.80
2022-09-14T09:43:48.275Z,0.70
2022-09-14T09:48:50.208Z,0.70
2022-09-14T09:53:53.203Z,0.80
2022-09-14T09:58:54.714Z,0.80
2022-09-14T10:04:16.234Z,0.93
2022-09-14T10:14:43.688Z,1.38
2022-09-14T10:19:52.347Z,1.27
2022-09-14T10:24:55.381Z,1.27
2022-09-14T10:29:56.859Z,0.70
2022-09-14T10:34:58.816Z,1.05
2022-09-14T10:40:13.809Z,0.90
2022-09-14T10:51:33.448Z,0.90
2022-09-14T10:56:40.662Z,0.80
2022-09-14T11:01:57.667Z,0.85
2022-09-14T11:07:12.370Z,0.70
2022-09-14T11:12:31.655Z,0.57
2022-09-14T11:17:51.752Z,0.68
2022-09-14T11:23:21.689Z,0.60
2022-09-14T11:28:29.430Z,0.55
2022-09-14T11:33:43.620Z,0.57
2022-09-14T11:38:53.063Z,0.70
2022-09-14T11:44:05.090Z,0.60
2022-09-14T11:49:19.932Z,0.45
2022-09-14T11:59:36.761Z,0.98
2022-09-14T12:04:38.256Z,0.82
2022-09-14T12:09:40.044Z,0.82
2022-09-14T12:14:44.468Z,1.05
2022-09-14T12:19:46.549Z,0.93
2022-09-14T12:25:01.918Z,1.00
2022-09-14T12:30:41.545Z,1.10
2022-09-14T12:35:45.125Z,0.88
2022-09-14T12:40:46.772Z,1.17
2022-09-14T12:45:52.342Z,1.40
2022-09-14T12:50:53.894Z,0.90
2022-09-14T12:56:05.335Z,1.23
2022-09-14T13:01:36.264Z,0.90
2022-09-14T13:06:45.378Z,0.88
2022-09-14T13:11:47.980Z,1.00
2022-09-14T13:16:51.445Z,0.70
2022-09-14T13:21:55.056Z,0.50
2022-09-14T13:26:58.086Z,0.85
2022-09-14T13:32:03.773Z,0.40
2022-09-14T13:37:06.197Z,0.63
2022-09-14T13:47:10.613Z,0.50
2022-09-14T13:52:18.844Z,0.52
2022-09-14T13:57:22.874Z,0.63
2022-09-14T14:02:24.386Z,0.57
2022-09-14T14:07:34.020Z,0.43
2022-09-14T14:12:39.544Z,0.60
2022-09-14T14:17:41.232Z,0.60
2022-09-14T14:23:04.641Z,0.80
2022-09-14T14:28:15.066Z,0.80
2022-09-14T14:33:19.128Z,0.80
2022-09-14T14:38:23.269Z,0.90
2022-09-14T14:43:26.281Z,0.93
2022-09-14T14:48:28.094Z,0.90
2022-09-14T14:53:29.612Z,1.00
2022-09-14T14:58:36.125Z,0.77
2022-09-14T15:03:38.007Z,0.98
2022-09-14T15:08:39.555Z,1.20
2022-09-14T15:13:41.037Z,1.30
2022-09-14T15:18:42.593Z,1.05
2022-09-14T15:23:44.102Z,1.10
2022-09-14T15:28:45.871Z,0.93
2022-09-14T15:33:47.443Z,0.93
2022-09-14T15:38:48.993Z,1.02
2022-09-14T15:43:50.541Z,1.20
2022-09-14T15:48:52.101Z,1.15
2022-09-14T15:53:53.578Z,0.98
2022-09-14T15:58:58.096Z,1.45
2022-09-14T16:04:01.089Z,1.25
2022-09-14T16:09:04.072Z,1.15
2022-09-14T16:14:06.241Z,1.30
2022-09-14T16:19:09.670Z,1.45
2022-09-14T16:24:14.162Z,1.23
2022-09-14T16:29:17.216Z,1.15
2022-09-14T16:34:26.536Z,1.08
2022-09-14T16:39:29.630Z,0.98
2022-09-14T16:44:31.172Z,1.23
2022-09-14T16:49:32.755Z,1.00
2022-09-14T16:54:34.296Z,0.98
2022-09-14T16:59:35.785Z,1.58
2022-09-14T17:04:37.263Z,0.93
2022-09-14T17:09:41.031Z,1.00
2022-09-14T17:14:42.516Z,0.77
2022-09-14T17:19:44.075Z,1.05
2022-09-14T17:24:45.571Z,1.10
2022-09-14T17:29:47.082Z,1.23
2022-09-14T17:34:48.603Z,0.90
2022-09-14T17:39:50.623Z,1.02
2022-09-14T17:49:53.656Z,1.30
2022-09-14T17:54:55.131Z,0.95
2022-09-14T17:59:56.642Z,1.05
2022-09-14T18:04:58.175Z,0.95
2022-09-14T18:09:59.663Z,0.85
2022-09-14T18:15:01.710Z,0.82
2022-09-14T18:20:03.441Z,0.98
2022-09-14T18:25:05.839Z,0.90
2022-09-14T18:30:07.944Z,1.10
2022-09-14T18:35:09.811Z,1.10
2022-09-14T18:40:11.409Z,0.70
2022-09-14T18:45:12.949Z,0.75
2022-09-14T18:50:14.910Z,1.95
2022-09-14T18:55:16.542Z,0.80
2022-09-14T19:00:18.805Z,1.05
2022-09-14T19:05:21.291Z,0.98
2022-09-14T19:10:23.154Z,1.08
2022-09-14T19:15:24.644Z,1.35
2022-09-14T19:20:38.173Z,1.48
2022-09-14T19:25:48.128Z,1.80
2022-09-14T19:30:50.015Z,1.95
2022-09-14T19:35:51.586Z,1.70
2022-09-14T19:40:53.123Z,1.10
2022-09-14T19:45:54.642Z,1.25
2022-09-14T19:51:03.940Z,1.50
2022-09-14T19:56:07.772Z,1.08
2022-09-14T20:01:09.321Z,1.45
2022-09-14T20:06:23.272Z,2.13
2022-09-14T20:11:25.843Z,2.30
2022-09-14T20:16:29.925Z,1.60
2022-09-14T20:21:31.487Z,1.10
2022-09-14T20:26:33.016Z,1.50
2022-09-14T20:31:34.690Z,1.33
2022-09-14T20:36:36.210Z,1.27
2022-09-14T20:41:37.741Z,1.10
2022-09-14T20:46:43.835Z,1.02
2022-09-14T20:51:45.464Z,1.10
2022-09-14T20:56:46.991Z,1.40
2022-09-14T21:01:49.645Z,1.45
2022-09-14T21:06:53.322Z,1.20
2022-09-14T21:11:54.810Z,1.15
2022-09-14T21:16:57.403Z,1.10
2022-09-14T21:21:58.914Z,1.20
2022-09-14T21:27:00.418Z,1.45
2022-09-14T21:32:06.821Z,1.45
2022-09-14T21:37:10.274Z,1.38
2022-09-14T21:42:11.760Z,1.55
2022-09-14T21:47:13.241Z,1.90
2022-09-14T21:52:14.725Z,1.92
2022-09-14T21:57:16.209Z,0.98
2022-09-14T22:02:17.699Z,0.93
2022-09-14T22:07:19.224Z,1.10
2022-09-14T22:12:20.729Z,1.10
2022-09-14T22:17:22.198Z,1.00
2022-09-14T22:22:23.732Z,1.08
2022-09-14T22:27:25.225Z,1.00
2022-09-14T22:32:26.724Z,1.20
2022-09-14T22:37:28.217Z,1.02
2022-09-14T22:42:31.449Z,0.68
2022-09-14T22:47:32.931Z,0.85
2022-09-14T22:52:34.415Z,1.00
2022-09-14T22:57:35.885Z,1.05
2022-09-14T23:02:37.416Z,0.90
2022-09-14T23:07:39.008Z,1.33
2022-09-14T23:12:40.557Z,0.75
2022-09-14T23:17:42.058Z,0.98
2022-09-14T23:22:43.560Z,0.90
2022-09-14T23:27:45.078Z,0.90
2022-09-14T23:32:46.670Z,0.90
2022-09-14T23:37:48.201Z,1.15
2022-09-14T23:42:49.695Z,0.98
2022-09-14T23:47:51.181Z,0.77
2022-09-14T23:52:57.270Z,1.48
2022-09-14T23:57:58.750Z,1.92
